sensor_id;sensor_type;location;lat;lon;timestamp;temperature;humidity
65239;SHT30;51827;51.186;6.926;2023-06-14T00:00:02;21.45;48.21
65239;SHT30;51827;51.186;6.926;2023-06-14T00:01:02;21.43;48.28
65239;SHT30;51827;51.186;6.926;2023-06-14T00:02:03;21.42;48.33
65239;SHT30;51827;51.186;6.926;2023-06-14T00:03:03;21.45;48.35
65239;SHT30;51827;51.186;6.926;2023-06-14T00:04:03;21.40;48.41
65239;SHT30;51827;51.186;6.926;2023-06-14T00:05:04;21.43;48.40
65239;SHT30;51827;51.186;6.926;2023-06-14T00:06:04;21.45;48.39
65239;SHT30;51827;51.186;6.926;2023-06-14T00:07:04;21.43;48.45
65239;SHT30;51827;51.186;6.926;2023-06-14T00:08:05;21.37;48.49
65239;SHT30;51827;51.186;6.926;2023-06-14T00:09:05;21.35;48.52
65239;SHT30;51827;51.186;6.926;2023-06-14T00:10:05;21.35;48.48
65239;SHT30;51827;51.186;6.926;2023-06-14T00:11:06;21.33;48.48
65239;SHT30;51827;51.186;6.926;2023-06-14T00:12:06;21.32;48.49
65239;SHT30;51827;51.186;6.926;2023-06-14T00:13:06;21.30;48.47
65239;SHT30;51827;51.186;6.926;2023-06-14T00:14:07;21.27;48.51
65239;SHT30;51827;51.186;6.926;2023-06-14T00:15:07;21.29;48.55
65239;SHT30;51827;51.186;6.926;2023-06-14T00:16:07;21.25;48.59
65239;SHT30;51827;51.186;6.926;2023-06-14T00:17:07;21.23;48.64
65239;SHT30;51827;51.186;6.926;2023-06-14T00:18:08;21.22;48.72
65239;SHT30;51827;51.186;6.926;2023-06-14T00:19:08;21.19;48.71
65239;SHT30;51827;51.186;6.926;2023-06-14T00:20:08;21.15;48.70
65239;SHT30;51827;51.186;6.926;2023-06-14T00:21:09;21.16;48.69
65239;SHT30;51827;51.186;6.926;2023-06-14T00:22:09;21.23;48.60
65239;SHT30;51827;51.186;6.926;2023-06-14T00:23:09;21.26;48.54
65239;SHT30;51827;51.186;6.926;2023-06-14T00:24:09;21.27;48.35
65239;SHT30;51827;51.186;6.926;2023-06-14T00:25:09;21.30;48.24
65239;SHT30;51827;51.186;6.926;2023-06-14T00:26:10;21.27;48.22
65239;SHT30;51827;51.186;6.926;2023-06-14T00:27:10;21.25;48.19
65239;SHT30;51827;51.186;6.926;2023-06-14T00:28:10;21.23;48.18
65239;SHT30;51827;51.186;6.926;2023-06-14T00:29:10;21.25;48.13
65239;SHT30;51827;51.186;6.926;2023-06-14T00:30:10;21.20;48.08
65239;SHT30;51827;51.186;6.926;2023-06-14T00:31:11;21.23;48.02
65239;SHT30;51827;51.186;6.926;2023-06-14T00:32:11;21.20;48.10
65239;SHT30;51827;51.186;6.926;2023-06-14T00:33:11;21.22;48.08
65239;SHT30;51827;51.186;6.926;2023-06-14T00:34:11;21.22;48.13
65239;SHT30;51827;51.186;6.926;2023-06-14T00:35:11;21.22;48.13
65239;SHT30;51827;51.186;6.926;2023-06-14T00:36:12;21.22;48.17
65239;SHT30;51827;51.186;6.926;2023-06-14T00:37:12;21.23;48.25
65239;SHT30;51827;51.186;6.926;2023-06-14T00:38:12;21.20;48.28
65239;SHT30;51827;51.186;6.926;2023-06-14T00:39:12;21.22;48.37
65239;SHT30;51827;51.186;6.926;2023-06-14T00:40:13;21.22;48.37
65239;SHT30;51827;51.186;6.926;2023-06-14T00:41:13;21.19;48.38
65239;SHT30;51827;51.186;6.926;2023-06-14T00:42:22;21.22;48.38
65239;SHT30;51827;51.186;6.926;2023-06-14T00:43:23;21.22;48.34
65239;SHT30;51827;51.186;6.926;2023-06-14T00:44:23;21.19;48.38
65239;SHT30;51827;51.186;6.926;2023-06-14T00:45:23;21.20;48.44
65239;SHT30;51827;51.186;6.926;2023-06-14T00:46:23;21.19;48.50
65239;SHT30;51827;51.186;6.926;2023-06-14T00:47:23;21.20;48.56
65239;SHT30;51827;51.186;6.926;2023-06-14T00:48:23;21.19;48.55
65239;SHT30;51827;51.186;6.926;2023-06-14T00:49:24;21.18;48.56
65239;SHT30;51827;51.186;6.926;2023-06-14T00:50:24;21.16;48.53
65239;SHT30;51827;51.186;6.926;2023-06-14T00:51:24;21.16;48.59
65239;SHT30;51827;51.186;6.926;2023-06-14T00:52:24;21.16;48.59
65239;SHT30;51827;51.186;6.926;2023-06-14T00:53:25;21.15;48.62
65239;SHT30;51827;51.186;6.926;2023-06-14T00:54:25;21.10;48.74
65239;SHT30;51827;51.186;6.926;2023-06-14T00:55:25;21.10;48.74
65239;SHT30;51827;51.186;6.926;2023-06-14T00:56:25;21.07;48.74
65239;SHT30;51827;51.186;6.926;2023-06-14T00:57:26;21.06;48.78
65239;SHT30;51827;51.186;6.926;2023-06-14T00:58:27;21.03;48.90
65239;SHT30;51827;51.186;6.926;2023-06-14T00:59:27;21.00;48.97
65239;SHT30;51827;51.186;6.926;2023-06-14T01:00:27;20.99;49.01
65239;SHT30;51827;51.186;6.926;2023-06-14T01:01:28;20.96;49.06
65239;SHT30;51827;51.186;6.926;2023-06-14T01:02:28;20.96;49.07
65239;SHT30;51827;51.186;6.926;2023-06-14T01:03:28;20.95;49.15
65239;SHT30;51827;51.186;6.926;2023-06-14T01:04:28;20.96;49.18
65239;SHT30;51827;51.186;6.926;2023-06-14T01:05:29;20.96;49.30
65239;SHT30;51827;51.186;6.926;2023-06-14T01:06:46;20.96;49.37
65239;SHT30;51827;51.186;6.926;2023-06-14T01:11:18;20.91;49.38
65239;SHT30;51827;51.186;6.926;2023-06-14T01:12:21;20.91;49.43
65239;SHT30;51827;51.186;6.926;2023-06-14T01:13:40;20.89;49.49
65239;SHT30;51827;51.186;6.926;2023-06-14T01:14:42;20.89;49.48
65239;SHT30;51827;51.186;6.926;2023-06-14T01:15:43;20.86;49.52
65239;SHT30;51827;51.186;6.926;2023-06-14T01:16:44;20.88;49.57
65239;SHT30;51827;51.186;6.926;2023-06-14T01:17:44;20.86;49.52
65239;SHT30;51827;51.186;6.926;2023-06-14T01:18:45;20.86;49.58
65239;SHT30;51827;51.186;6.926;2023-06-14T01:19:45;20.82;49.58
65239;SHT30;51827;51.186;6.926;2023-06-14T01:20:46;20.82;49.61
65239;SHT30;51827;51.186;6.926;2023-06-14T01:21:47;20.82;49.62
65239;SHT30;51827;51.186;6.926;2023-06-14T01:22:50;20.83;49.62
65239;SHT30;51827;51.186;6.926;2023-06-14T01:23:51;20.81;49.65
65239;SHT30;51827;51.186;6.926;2023-06-14T01:24:52;20.73;49.74
65239;SHT30;51827;51.186;6.926;2023-06-14T01:25:52;20.72;49.80
65239;SHT30;51827;51.186;6.926;2023-06-14T01:26:53;20.75;49.81
65239;SHT30;51827;51.186;6.926;2023-06-14T01:27:55;20.71;49.85
65239;SHT30;51827;51.186;6.926;2023-06-14T01:28:57;20.71;49.89
65239;SHT30;51827;51.186;6.926;2023-06-14T01:29:57;20.67;49.98
65239;SHT30;51827;51.186;6.926;2023-06-14T01:30:59;20.65;50.00
65239;SHT30;51827;51.186;6.926;2023-06-14T01:32:00;20.65;50.03
65239;SHT30;51827;51.186;6.926;2023-06-14T01:33:00;20.64;50.05
65239;SHT30;51827;51.186;6.926;2023-06-14T01:34:00;20.64;50.10
65239;SHT30;51827;51.186;6.926;2023-06-14T01:35:01;20.62;50.11
65239;SHT30;51827;51.186;6.926;2023-06-14T01:36:01;20.61;50.10
65239;SHT30;51827;51.186;6.926;2023-06-14T01:37:02;20.56;50.15
65239;SHT30;51827;51.186;6.926;2023-06-14T01:38:02;20.56;50.20
65239;SHT30;51827;51.186;6.926;2023-06-14T01:39:03;20.56;50.14
65239;SHT30;51827;51.186;6.926;2023-06-14T01:40:04;20.58;50.11
65239;SHT30;51827;51.186;6.926;2023-06-14T01:41:05;20.58;50.16
65239;SHT30;51827;51.186;6.926;2023-06-14T01:42:05;20.59;50.10
65239;SHT30;51827;51.186;6.926;2023-06-14T01:43:06;20.58;50.17
65239;SHT30;51827;51.186;6.926;2023-06-14T01:44:06;20.58;50.15
65239;SHT30;51827;51.186;6.926;2023-06-14T01:45:07;20.56;50.19
65239;SHT30;51827;51.186;6.926;2023-06-14T01:46:10;20.53;50.23
65239;SHT30;51827;51.186;6.926;2023-06-14T01:47:11;20.55;50.22
65239;SHT30;51827;51.186;6.926;2023-06-14T01:48:11;20.53;50.20
65239;SHT30;51827;51.186;6.926;2023-06-14T01:49:12;20.58;50.15
65239;SHT30;51827;51.186;6.926;2023-06-14T01:50:12;20.56;50.22
65239;SHT30;51827;51.186;6.926;2023-06-14T01:51:13;20.58;50.23
65239;SHT30;51827;51.186;6.926;2023-06-14T01:52:13;20.55;50.26
65239;SHT30;51827;51.186;6.926;2023-06-14T01:53:13;20.55;50.24
65239;SHT30;51827;51.186;6.926;2023-06-14T01:54:13;20.56;50.20
65239;SHT30;51827;51.186;6.926;2023-06-14T01:55:13;20.56;50.24
65239;SHT30;51827;51.186;6.926;2023-06-14T01:56:14;20.55;50.21
65239;SHT30;51827;51.186;6.926;2023-06-14T01:57:14;20.53;50.24
65239;SHT30;51827;51.186;6.926;2023-06-14T01:58:14;20.55;50.24
65239;SHT30;51827;51.186;6.926;2023-06-14T01:59:14;20.56;50.16
65239;SHT30;51827;51.186;6.926;2023-06-14T02:00:15;20.55;50.20
65239;SHT30;51827;51.186;6.926;2023-06-14T02:01:15;20.55;50.12
65239;SHT30;51827;51.186;6.926;2023-06-14T02:02:15;20.55;50.09
65239;SHT30;51827;51.186;6.926;2023-06-14T02:03:15;20.56;50.04
65239;SHT30;51827;51.186;6.926;2023-06-14T02:04:15;20.52;50.06
65239;SHT30;51827;51.186;6.926;2023-06-14T02:05:16;20.51;50.10
65239;SHT30;51827;51.186;6.926;2023-06-14T02:06:16;20.49;50.08
65239;SHT30;51827;51.186;6.926;2023-06-14T02:07:16;20.48;50.08
65239;SHT30;51827;51.186;6.926;2023-06-14T02:08:18;20.47;50.08
65239;SHT30;51827;51.186;6.926;2023-06-14T02:09:18;20.51;50.03
65239;SHT30;51827;51.186;6.926;2023-06-14T02:10:18;20.47;50.03
65239;SHT30;51827;51.186;6.926;2023-06-14T02:11:18;20.45;50.10
65239;SHT30;51827;51.186;6.926;2023-06-14T02:12:19;20.45;50.11
65239;SHT30;51827;51.186;6.926;2023-06-14T02:13:19;20.45;50.09
65239;SHT30;51827;51.186;6.926;2023-06-14T02:14:19;20.44;50.10
65239;SHT30;51827;51.186;6.926;2023-06-14T02:15:19;20.44;50.06
65239;SHT30;51827;51.186;6.926;2023-06-14T02:16:19;20.44;50.03
65239;SHT30;51827;51.186;6.926;2023-06-14T02:17:22;20.42;50.03
65239;SHT30;51827;51.186;6.926;2023-06-14T02:18:23;20.39;50.07
65239;SHT30;51827;51.186;6.926;2023-06-14T02:19:23;20.41;50.01
65239;SHT30;51827;51.186;6.926;2023-06-14T02:20:23;20.35;50.07
65239;SHT30;51827;51.186;6.926;2023-06-14T02:21:23;20.34;50.12
65239;SHT30;51827;51.186;6.926;2023-06-14T02:22:23;20.31;50.19
65239;SHT30;51827;51.186;6.926;2023-06-14T02:23:23;20.29;50.20
65239;SHT30;51827;51.186;6.926;2023-06-14T02:24:24;20.29;50.16
65239;SHT30;51827;51.186;6.926;2023-06-14T02:25:24;20.29;50.21
65239;SHT30;51827;51.186;6.926;2023-06-14T02:26:24;20.29;50.19
65239;SHT30;51827;51.186;6.926;2023-06-14T02:27:24;20.31;50.14
65239;SHT30;51827;51.186;6.926;2023-06-14T02:28:24;20.31;50.15
65239;SHT30;51827;51.186;6.926;2023-06-14T02:29:24;20.29;50.15
65239;SHT30;51827;51.186;6.926;2023-06-14T02:30:25;20.32;50.15
65239;SHT30;51827;51.186;6.926;2023-06-14T02:31:25;20.31;50.13
65239;SHT30;51827;51.186;6.926;2023-06-14T02:32:25;20.31;50.15
65239;SHT30;51827;51.186;6.926;2023-06-14T02:33:25;20.32;50.16
65239;SHT30;51827;51.186;6.926;2023-06-14T02:34:26;20.28;50.23
65239;SHT30;51827;51.186;6.926;2023-06-14T02:35:26;20.28;50.26
65239;SHT30;51827;51.186;6.926;2023-06-14T02:36:26;20.29;50.27
65239;SHT30;51827;51.186;6.926;2023-06-14T02:37:27;20.31;50.27
65239;SHT30;51827;51.186;6.926;2023-06-14T02:38:27;20.28;50.28
65239;SHT30;51827;51.186;6.926;2023-06-14T02:39:27;20.22;50.39
65239;SHT30;51827;51.186;6.926;2023-06-14T02:40:27;20.25;50.36
65239;SHT30;51827;51.186;6.926;2023-06-14T02:41:27;20.24;50.37
65239;SHT30;51827;51.186;6.926;2023-06-14T02:42:27;20.27;50.36
65239;SHT30;51827;51.186;6.926;2023-06-14T02:43:28;20.25;50.36
65239;SHT30;51827;51.186;6.926;2023-06-14T02:44:28;20.22;50.29
65239;SHT30;51827;51.186;6.926;2023-06-14T02:45:29;20.22;50.27
65239;SHT30;51827;51.186;6.926;2023-06-14T02:46:29;20.25;50.30
65239;SHT30;51827;51.186;6.926;2023-06-14T02:47:29;20.24;50.23
65239;SHT30;51827;51.186;6.926;2023-06-14T02:48:29;20.22;50.34
65239;SHT30;51827;51.186;6.926;2023-06-14T02:49:29;20.22;50.30
65239;SHT30;51827;51.186;6.926;2023-06-14T02:50:30;20.21;50.32
65239;SHT30;51827;51.186;6.926;2023-06-14T02:51:30;20.22;50.35
65239;SHT30;51827;51.186;6.926;2023-06-14T02:52:30;20.24;50.31
65239;SHT30;51827;51.186;6.926;2023-06-14T02:53:30;20.24;50.26
65239;SHT30;51827;51.186;6.926;2023-06-14T02:54:30;20.27;50.21
65239;SHT30;51827;51.186;6.926;2023-06-14T02:55:30;20.21;50.24
65239;SHT30;51827;51.186;6.926;2023-06-14T02:56:30;20.25;50.16
65239;SHT30;51827;51.186;6.926;2023-06-14T02:57:31;20.22;50.19
65239;SHT30;51827;51.186;6.926;2023-06-14T02:58:31;20.18;50.20
65239;SHT30;51827;51.186;6.926;2023-06-14T02:59:31;20.18;50.28
65239;SHT30;51827;51.186;6.926;2023-06-14T03:00:31;20.17;50.24
65239;SHT30;51827;51.186;6.926;2023-06-14T03:01:31;20.14;50.27
65239;SHT30;51827;51.186;6.926;2023-06-14T03:02:31;20.17;50.31
65239;SHT30;51827;51.186;6.926;2023-06-14T03:03:31;20.17;50.31
65239;SHT30;51827;51.186;6.926;2023-06-14T03:04:32;20.13;50.35
65239;SHT30;51827;51.186;6.926;2023-06-14T03:05:32;20.14;50.28
65239;SHT30;51827;51.186;6.926;2023-06-14T03:06:32;20.13;50.31
65239;SHT30;51827;51.186;6.926;2023-06-14T03:07:32;20.14;50.28
65239;SHT30;51827;51.186;6.926;2023-06-14T03:08:32;20.14;50.21
65239;SHT30;51827;51.186;6.926;2023-06-14T03:09:32;20.15;50.18
65239;SHT30;51827;51.186;6.926;2023-06-14T03:10:33;20.17;50.09
65239;SHT30;51827;51.186;6.926;2023-06-14T03:11:33;20.18;50.04
65239;SHT30;51827;51.186;6.926;2023-06-14T03:12:33;20.11;50.06
65239;SHT30;51827;51.186;6.926;2023-06-14T03:13:36;20.15;50.09
65239;SHT30;51827;51.186;6.926;2023-06-14T03:14:36;20.14;50.08
65239;SHT30;51827;51.186;6.926;2023-06-14T03:15:36;20.14;50.14
65239;SHT30;51827;51.186;6.926;2023-06-14T03:16:37;20.17;50.10
65239;SHT30;51827;51.186;6.926;2023-06-14T03:17:37;20.17;50.11
65239;SHT30;51827;51.186;6.926;2023-06-14T03:18:37;20.18;50.03
65239;SHT30;51827;51.186;6.926;2023-06-14T03:19:37;20.17;50.00
65239;SHT30;51827;51.186;6.926;2023-06-14T03:20:38;20.15;49.94
65239;SHT30;51827;51.186;6.926;2023-06-14T03:21:38;20.21;49.95
65239;SHT30;51827;51.186;6.926;2023-06-14T03:22:38;20.21;49.98
65239;SHT30;51827;51.186;6.926;2023-06-14T03:23:38;20.24;49.94
65239;SHT30;51827;51.186;6.926;2023-06-14T03:24:38;20.22;49.90
65239;SHT30;51827;51.186;6.926;2023-06-14T03:25:38;20.22;49.95
65239;SHT30;51827;51.186;6.926;2023-06-14T03:26:38;20.24;49.85
65239;SHT30;51827;51.186;6.926;2023-06-14T03:27:39;20.29;49.83
65239;SHT30;51827;51.186;6.926;2023-06-14T03:28:39;20.44;49.79
65239;SHT30;51827;51.186;6.926;2023-06-14T03:29:39;20.52;49.67
65239;SHT30;51827;51.186;6.926;2023-06-14T03:30:39;20.58;49.59
65239;SHT30;51827;51.186;6.926;2023-06-14T03:31:41;20.61;49.47
65239;SHT30;51827;51.186;6.926;2023-06-14T03:32:55;20.62;49.60
65239;SHT30;51827;51.186;6.926;2023-06-14T03:33:55;20.62;50.19
65239;SHT30;51827;51.186;6.926;2023-06-14T03:34:55;20.62;50.27
65239;SHT30;51827;51.186;6.926;2023-06-14T03:35:56;20.62;50.03
65239;SHT30;51827;51.186;6.926;2023-06-14T03:36:56;20.62;50.03
65239;SHT30;51827;51.186;6.926;2023-06-14T03:37:56;20.58;50.02
65239;SHT30;51827;51.186;6.926;2023-06-14T03:38:56;20.55;50.02
65239;SHT30;51827;51.186;6.926;2023-06-14T03:39:56;20.53;49.91
65239;SHT30;51827;51.186;6.926;2023-06-14T03:40:57;20.53;49.84
65239;SHT30;51827;51.186;6.926;2023-06-14T03:41:57;20.55;49.83
65239;SHT30;51827;51.186;6.926;2023-06-14T03:42:57;20.53;49.77
65239;SHT30;51827;51.186;6.926;2023-06-14T03:43:57;20.52;49.83
65239;SHT30;51827;51.186;6.926;2023-06-14T03:44:57;20.51;49.87
65239;SHT30;51827;51.186;6.926;2023-06-14T03:45:57;20.49;49.93
65239;SHT30;51827;51.186;6.926;2023-06-14T03:46:58;20.47;49.92
65239;SHT30;51827;51.186;6.926;2023-06-14T03:47:58;20.47;49.98
65239;SHT30;51827;51.186;6.926;2023-06-14T03:48:58;20.47;49.95
65239;SHT30;51827;51.186;6.926;2023-06-14T03:49:58;20.49;50.21
65239;SHT30;51827;51.186;6.926;2023-06-14T03:50:58;20.53;49.93
65239;SHT30;51827;51.186;6.926;2023-06-14T03:51:58;20.59;49.80
65239;SHT30;51827;51.186;6.926;2023-06-14T03:52:58;20.67;49.65
65239;SHT30;51827;51.186;6.926;2023-06-14T03:53:59;20.72;49.60
65239;SHT30;51827;51.186;6.926;2023-06-14T03:54:59;20.78;49.40
65239;SHT30;51827;51.186;6.926;2023-06-14T03:55:59;20.83;49.30
65239;SHT30;51827;51.186;6.926;2023-06-14T03:56:59;20.93;49.13
65239;SHT30;51827;51.186;6.926;2023-06-14T03:57:59;20.99;49.04
65239;SHT30;51827;51.186;6.926;2023-06-14T03:58:59;21.06;48.87
65239;SHT30;51827;51.186;6.926;2023-06-14T04:00:00;21.09;48.82
65239;SHT30;51827;51.186;6.926;2023-06-14T04:01:00;21.13;48.69
65239;SHT30;51827;51.186;6.926;2023-06-14T04:02:00;21.22;48.51
65239;SHT30;51827;51.186;6.926;2023-06-14T04:03:00;21.25;48.42
65239;SHT30;51827;51.186;6.926;2023-06-14T04:04:00;21.29;48.38
65239;SHT30;51827;51.186;6.926;2023-06-14T04:05:01;21.35;48.29
65239;SHT30;51827;51.186;6.926;2023-06-14T04:06:01;21.37;48.19
65239;SHT30;51827;51.186;6.926;2023-06-14T04:07:01;21.42;48.09
65239;SHT30;51827;51.186;6.926;2023-06-14T04:08:01;21.46;48.06
65239;SHT30;51827;51.186;6.926;2023-06-14T04:09:01;21.49;47.98
65239;SHT30;51827;51.186;6.926;2023-06-14T04:10:02;21.51;47.94
65239;SHT30;51827;51.186;6.926;2023-06-14T04:11:02;21.53;47.88
65239;SHT30;51827;51.186;6.926;2023-06-14T04:12:02;21.57;47.83
65239;SHT30;51827;51.186;6.926;2023-06-14T04:13:02;21.57;47.78
65239;SHT30;51827;51.186;6.926;2023-06-14T04:14:02;21.63;47.76
65239;SHT30;51827;51.186;6.926;2023-06-14T04:15:03;21.64;47.71
65239;SHT30;51827;51.186;6.926;2023-06-14T04:16:03;21.66;47.67
65239;SHT30;51827;51.186;6.926;2023-06-14T04:17:03;21.67;47.66
65239;SHT30;51827;51.186;6.926;2023-06-14T04:18:04;21.69;47.63
65239;SHT30;51827;51.186;6.926;2023-06-14T04:19:04;21.70;47.58
65239;SHT30;51827;51.186;6.926;2023-06-14T04:20:04;21.74;47.59
65239;SHT30;51827;51.186;6.926;2023-06-14T04:21:04;21.78;47.51
65239;SHT30;51827;51.186;6.926;2023-06-14T04:22:05;21.76;47.49
65239;SHT30;51827;51.186;6.926;2023-06-14T04:23:12;21.78;47.53
65239;SHT30;51827;51.186;6.926;2023-06-14T04:24:12;21.80;47.42
65239;SHT30;51827;51.186;6.926;2023-06-14T04:25:12;21.81;47.40
65239;SHT30;51827;51.186;6.926;2023-06-14T04:26:12;21.83;47.38
65239;SHT30;51827;51.186;6.926;2023-06-14T04:27:12;21.83;47.35
65239;SHT30;51827;51.186;6.926;2023-06-14T04:28:13;21.87;47.36
65239;SHT30;51827;51.186;6.926;2023-06-14T04:29:16;21.86;47.26
65239;SHT30;51827;51.186;6.926;2023-06-14T04:30:16;21.89;47.29
65239;SHT30;51827;51.186;6.926;2023-06-14T04:31:16;21.90;47.24
65239;SHT30;51827;51.186;6.926;2023-06-14T04:32:16;21.90;47.27
65239;SHT30;51827;51.186;6.926;2023-06-14T04:33:16;21.93;47.19
65239;SHT30;51827;51.186;6.926;2023-06-14T04:34:16;21.94;47.23
65239;SHT30;51827;51.186;6.926;2023-06-14T04:35:16;21.93;47.18
65239;SHT30;51827;51.186;6.926;2023-06-14T04:36:17;21.96;47.20
65239;SHT30;51827;51.186;6.926;2023-06-14T04:37:17;21.97;47.19
65239;SHT30;51827;51.186;6.926;2023-06-14T04:38:17;21.96;47.16
65239;SHT30;51827;51.186;6.926;2023-06-14T04:39:17;22.00;47.18
65239;SHT30;51827;51.186;6.926;2023-06-14T04:40:18;21.98;47.18
65239;SHT30;51827;51.186;6.926;2023-06-14T04:41:18;22.01;47.12
65239;SHT30;51827;51.186;6.926;2023-06-14T04:42:18;22.00;47.12
65239;SHT30;51827;51.186;6.926;2023-06-14T04:43:18;22.02;47.13
65239;SHT30;51827;51.186;6.926;2023-06-14T04:44:19;22.01;47.10
65239;SHT30;51827;51.186;6.926;2023-06-14T04:45:19;22.04;47.10
65239;SHT30;51827;51.186;6.926;2023-06-14T04:46:19;22.02;47.10
65239;SHT30;51827;51.186;6.926;2023-06-14T04:47:19;22.04;47.10
65239;SHT30;51827;51.186;6.926;2023-06-14T04:48:20;22.07;47.07
65239;SHT30;51827;51.186;6.926;2023-06-14T04:49:20;22.05;47.07
65239;SHT30;51827;51.186;6.926;2023-06-14T04:50:20;22.08;47.08
65239;SHT30;51827;51.186;6.926;2023-06-14T04:51:20;22.08;47.07
65239;SHT30;51827;51.186;6.926;2023-06-14T04:52:20;22.10;47.04
65239;SHT30;51827;51.186;6.926;2023-06-14T04:53:20;22.11;47.09
65239;SHT30;51827;51.186;6.926;2023-06-14T04:54:21;22.08;47.04
65239;SHT30;51827;51.186;6.926;2023-06-14T04:55:21;22.11;47.05
65239;SHT30;51827;51.186;6.926;2023-06-14T04:56:21;22.12;47.04
65239;SHT30;51827;51.186;6.926;2023-06-14T04:57:21;22.14;47.09
65239;SHT30;51827;51.186;6.926;2023-06-14T04:58:21;22.14;47.07
65239;SHT30;51827;51.186;6.926;2023-06-14T04:59:21;22.11;47.03
65239;SHT30;51827;51.186;6.926;2023-06-14T05:00:22;22.17;47.04
65239;SHT30;51827;51.186;6.926;2023-06-14T05:01:22;22.14;47.04
65239;SHT30;51827;51.186;6.926;2023-06-14T05:02:22;22.17;47.04
65239;SHT30;51827;51.186;6.926;2023-06-14T05:03:22;22.17;47.04
65239;SHT30;51827;51.186;6.926;2023-06-14T05:04:23;22.17;47.02
65239;SHT30;51827;51.186;6.926;2023-06-14T05:05:23;22.18;47.04
65239;SHT30;51827;51.186;6.926;2023-06-14T05:06:23;22.17;47.04
65239;SHT30;51827;51.186;6.926;2023-06-14T05:07:23;22.18;47.01
65239;SHT30;51827;51.186;6.926;2023-06-14T05:08:23;22.20;47.06
65239;SHT30;51827;51.186;6.926;2023-06-14T05:09:23;22.20;47.04
65239;SHT30;51827;51.186;6.926;2023-06-14T05:10:24;22.21;47.02
65239;SHT30;51827;51.186;6.926;2023-06-14T05:11:24;22.20;47.02
65239;SHT30;51827;51.186;6.926;2023-06-14T05:12:24;22.21;47.04
65239;SHT30;51827;51.186;6.926;2023-06-14T05:13:24;22.21;47.04
65239;SHT30;51827;51.186;6.926;2023-06-14T05:14:25;22.21;47.05
65239;SHT30;51827;51.186;6.926;2023-06-14T05:15:25;22.21;47.03
65239;SHT30;51827;51.186;6.926;2023-06-14T05:16:25;22.25;47.02
65239;SHT30;51827;51.186;6.926;2023-06-14T05:17:25;22.24;47.04
65239;SHT30;51827;51.186;6.926;2023-06-14T05:18:25;22.22;47.02
65239;SHT30;51827;51.186;6.926;2023-06-14T05:19:25;22.25;47.00
65239;SHT30;51827;51.186;6.926;2023-06-14T05:20:26;22.24;47.02
65239;SHT30;51827;51.186;6.926;2023-06-14T05:21:26;22.25;47.05
65239;SHT30;51827;51.186;6.926;2023-06-14T05:22:26;22.24;47.01
65239;SHT30;51827;51.186;6.926;2023-06-14T05:23:26;22.25;47.02
65239;SHT30;51827;51.186;6.926;2023-06-14T05:24:26;22.25;46.97
65239;SHT30;51827;51.186;6.926;2023-06-14T05:25:26;22.24;46.99
65239;SHT30;51827;51.186;6.926;2023-06-14T05:26:27;22.27;46.99
65239;SHT30;51827;51.186;6.926;2023-06-14T05:27:27;22.28;47.03
65239;SHT30;51827;51.186;6.926;2023-06-14T05:28:27;22.28;47.00
65239;SHT30;51827;51.186;6.926;2023-06-14T05:29:27;22.30;47.01
65239;SHT30;51827;51.186;6.926;2023-06-14T05:30:27;22.30;47.04
65239;SHT30;51827;51.186;6.926;2023-06-14T05:31:27;22.31;46.96
65239;SHT30;51827;51.186;6.926;2023-06-14T05:32:28;22.30;47.00
65239;SHT30;51827;51.186;6.926;2023-06-14T05:33:28;22.28;46.99
65239;SHT30;51827;51.186;6.926;2023-06-14T05:34:28;22.28;46.99
65239;SHT30;51827;51.186;6.926;2023-06-14T05:35:28;22.30;47.00
65239;SHT30;51827;51.186;6.926;2023-06-14T05:36:28;22.31;46.99
65239;SHT30;51827;51.186;6.926;2023-06-14T05:37:28;22.32;46.99
65239;SHT30;51827;51.186;6.926;2023-06-14T05:38:29;22.31;46.98
65239;SHT30;51827;51.186;6.926;2023-06-14T05:39:29;22.35;47.03
65239;SHT30;51827;51.186;6.926;2023-06-14T05:40:29;22.32;46.98
65239;SHT30;51827;51.186;6.926;2023-06-14T05:41:29;22.31;46.99
65239;SHT30;51827;51.186;6.926;2023-06-14T05:42:29;22.30;46.99
65239;SHT30;51827;51.186;6.926;2023-06-14T05:43:30;22.32;47.00
65239;SHT30;51827;51.186;6.926;2023-06-14T05:44:30;22.31;47.00
65239;SHT30;51827;51.186;6.926;2023-06-14T05:45:30;22.34;46.98
65239;SHT30;51827;51.186;6.926;2023-06-14T05:46:30;22.35;46.97
65239;SHT30;51827;51.186;6.926;2023-06-14T05:47:30;22.34;46.98
65239;SHT30;51827;51.186;6.926;2023-06-14T05:48:31;22.34;47.00
65239;SHT30;51827;51.186;6.926;2023-06-14T05:49:31;22.32;47.00
65239;SHT30;51827;51.186;6.926;2023-06-14T05:50:31;22.35;46.96
65239;SHT30;51827;51.186;6.926;2023-06-14T05:51:31;22.34;46.96
65239;SHT30;51827;51.186;6.926;2023-06-14T05:52:31;22.37;46.96
65239;SHT30;51827;51.186;6.926;2023-06-14T05:53:35;22.35;46.96
65239;SHT30;51827;51.186;6.926;2023-06-14T05:54:35;22.37;46.98
65239;SHT30;51827;51.186;6.926;2023-06-14T05:55:35;22.37;46.97
65239;SHT30;51827;51.186;6.926;2023-06-14T05:56:35;22.37;46.96
65239;SHT30;51827;51.186;6.926;2023-06-14T05:57:35;22.37;46.98
65239;SHT30;51827;51.186;6.926;2023-06-14T05:58:35;22.38;47.00
65239;SHT30;51827;51.186;6.926;2023-06-14T05:59:36;22.38;46.99
65239;SHT30;51827;51.186;6.926;2023-06-14T06:00:36;22.37;46.99
65239;SHT30;51827;51.186;6.926;2023-06-14T06:01:36;22.40;46.96
65239;SHT30;51827;51.186;6.926;2023-06-14T06:02:36;22.40;47.00
65239;SHT30;51827;51.186;6.926;2023-06-14T06:03:36;22.40;46.94
65239;SHT30;51827;51.186;6.926;2023-06-14T06:04:37;22.38;46.95
65239;SHT30;51827;51.186;6.926;2023-06-14T06:05:37;22.40;46.99
65239;SHT30;51827;51.186;6.926;2023-06-14T06:06:37;22.41;46.96
65239;SHT30;51827;51.186;6.926;2023-06-14T06:07:37;22.41;46.97
65239;SHT30;51827;51.186;6.926;2023-06-14T06:08:37;22.40;46.96
65239;SHT30;51827;51.186;6.926;2023-06-14T06:09:38;22.40;46.98
65239;SHT30;51827;51.186;6.926;2023-06-14T06:10:38;22.41;46.96
65239;SHT30;51827;51.186;6.926;2023-06-14T06:11:38;22.41;46.94
65239;SHT30;51827;51.186;6.926;2023-06-14T06:12:38;22.42;46.96
65239;SHT30;51827;51.186;6.926;2023-06-14T06:13:38;22.41;46.96
65239;SHT30;51827;51.186;6.926;2023-06-14T06:14:38;22.42;46.94
65239;SHT30;51827;51.186;6.926;2023-06-14T06:15:38;22.42;46.95
65239;SHT30;51827;51.186;6.926;2023-06-14T06:16:39;22.41;46.92
65239;SHT30;51827;51.186;6.926;2023-06-14T06:17:39;22.42;46.92
65239;SHT30;51827;51.186;6.926;2023-06-14T06:18:39;22.42;46.93
65239;SHT30;51827;51.186;6.926;2023-06-14T06:19:39;22.44;46.91
65239;SHT30;51827;51.186;6.926;2023-06-14T06:20:39;22.42;46.97
65239;SHT30;51827;51.186;6.926;2023-06-14T06:21:39;22.47;46.96
65239;SHT30;51827;51.186;6.926;2023-06-14T06:22:40;22.47;46.96
65239;SHT30;51827;51.186;6.926;2023-06-14T06:23:40;22.44;46.97
65239;SHT30;51827;51.186;6.926;2023-06-14T06:24:40;22.47;46.95